createdAt,value
2022-10-22T00:03:14.633Z,100375.06
2022-10-22T00:08:19.306Z,100308.84
2022-10-22T00:13:24.933Z,100722.00
2022-10-22T00:25:22.254Z,100349.72
2022-10-22T00:30:25.068Z,100705.13
2022-10-22T00:35:30.321Z,100744.41
2022-10-22T00:40:35.666Z,100732.66
2022-10-22T00:45:41.976Z,100746.34
2022-10-22T00:50:48.576Z,100720.78
2022-10-22T00:55:56.425Z,100643.31
2022-10-22T01:00:59.964Z,100272.50
2022-10-22T01:06:06.050Z,100321.19
2022-10-22T01:11:21.398Z,100717.91
2022-10-22T01:16:34.279Z,100584.72
2022-10-22T01:21:47.734Z,100509.31
2022-10-22T01:27:11.838Z,100456.41
2022-10-22T01:32:22.314Z,100735.47
2022-10-22T01:37:29.897Z,100586.78
2022-10-22T01:42:36.107Z,100410.78
2022-10-22T01:47:55.091Z,100705.72
2022-10-22T01:53:30.875Z,100685.28
2022-10-22T01:58:43.796Z,100437.38
2022-10-22T02:03:57.936Z,100275.63
2022-10-22T02:09:05.120Z,100524.97
2022-10-22T02:14:09.007Z,100703.06
2022-10-22T02:19:21.187Z,100482.13
2022-10-22T02:24:25.551Z,100507.50
2022-10-22T02:29:34.917Z,100529.44
2022-10-22T02:34:39.869Z,100313.06
2022-10-22T02:39:43.022Z,100536.69
2022-10-22T02:44:46.037Z,100553.94
2022-10-22T02:49:50.163Z,100665.53
2022-10-22T02:54:53.163Z,100594.59
2022-10-22T02:59:56.170Z,100388.06
2022-10-22T03:05:00.479Z,100565.88
2022-10-22T03:10:03.576Z,100509.56
2022-10-22T03:15:15.229Z,100493.53
2022-10-22T03:20:19.592Z,100526.25
2022-10-22T03:25:25.052Z,100583.38
2022-10-22T03:30:28.843Z,100561.81
2022-10-22T03:35:44.099Z,100667.72
2022-10-22T03:40:48.181Z,100745.97
2022-10-22T03:45:51.277Z,100637.94
2022-10-22T03:50:55.667Z,100608.84
2022-10-22T03:56:01.054Z,100359.94
2022-10-22T04:01:06.536Z,100337.94
2022-10-22T04:06:12.552Z,100609.69
2022-10-22T04:11:20.671Z,100353.53
2022-10-22T04:16:27.511Z,100736.28
2022-10-22T04:21:37.042Z,100743.75
2022-10-22T04:26:40.286Z,100354.75
2022-10-22T04:31:44.631Z,100783.09
2022-10-22T04:36:49.021Z,100598.31
2022-10-22T04:41:51.784Z,100702.91
2022-10-22T04:46:54.557Z,100718.94
2022-10-22T04:51:59.066Z,100771.13
2022-10-22T04:57:03.796Z,100770.69
2022-10-22T05:02:06.805Z,100773.59
2022-10-22T05:07:10.842Z,100708.13
2022-10-22T05:12:13.668Z,100588.47
2022-10-22T05:17:21.557Z,100791.16
2022-10-22T05:22:25.733Z,100808.59
2022-10-22T05:27:30.524Z,100799.47
2022-10-22T05:32:35.573Z,100725.94
2022-10-22T05:37:40.140Z,100763.00
2022-10-22T05:42:43.298Z,100507.31
2022-10-22T05:47:46.102Z,100505.72
2022-10-22T05:52:50.258Z,100633.16
2022-10-22T05:57:53.125Z,100819.63
2022-10-22T06:02:56.063Z,100818.78
2022-10-22T06:08:00.375Z,100640.63
2022-10-22T06:13:07.190Z,100710.94
2022-10-22T06:18:16.978Z,100763.13
2022-10-22T06:23:21.039Z,100842.38
2022-10-22T06:33:34.096Z,100831.97
2022-10-22T06:38:39.343Z,100715.66
2022-10-22T06:43:46.711Z,100885.19
2022-10-22T06:48:51.176Z,100717.34
2022-10-22T06:53:56.168Z,100630.59
2022-10-22T06:59:00.190Z,100906.19
2022-10-22T07:04:06.707Z,100769.81
2022-10-22T07:09:11.209Z,100667.19
2022-10-22T07:14:15.403Z,100923.22
2022-10-22T07:19:18.303Z,100938.97
2022-10-22T07:24:22.601Z,100730.66
2022-10-22T07:29:25.396Z,100741.28
2022-10-22T07:34:28.214Z,100934.25
2022-10-22T07:39:36.607Z,100911.38
2022-10-22T07:44:40.929Z,100969.94
2022-10-22T07:49:45.721Z,100775.25
2022-10-22T07:54:50.215Z,100728.00
2022-10-22T07:59:53.558Z,100607.88
2022-10-22T08:04:57.070Z,100991.13
2022-10-22T08:10:01.545Z,100741.72
2022-10-22T08:15:19.068Z,100593.88
2022-10-22T08:20:22.371Z,100780.31
2022-10-22T08:25:26.840Z,101030.63
2022-10-22T08:30:29.809Z,100921.38
2022-10-22T08:35:35.073Z,100866.34
2022-10-22T08:40:41.393Z,100950.03
2022-10-22T08:45:53.297Z,100884.69
2022-10-22T08:50:58.677Z,100882.63
2022-10-22T08:56:03.790Z,101057.81
2022-10-22T09:01:12.923Z,101042.72
2022-10-22T09:06:19.587Z,100877.28
2022-10-22T09:11:31.787Z,100753.28
2022-10-22T09:16:40.722Z,100765.63
2022-10-22T09:21:56.850Z,101056.47
2022-10-22T09:27:02.780Z,101059.72
2022-10-22T09:32:05.951Z,101067.78
2022-10-22T09:37:14.142Z,101040.38
2022-10-22T09:42:23.823Z,100710.19
2022-10-22T09:47:43.633Z,100827.56
2022-10-22T09:53:00.813Z,101037.09
2022-10-22T09:58:13.320Z,101090.56
2022-10-22T10:03:40.319Z,100867.00
2022-10-22T10:08:43.319Z,100979.97
2022-10-22T10:14:09.518Z,101118.34
2022-10-22T10:19:36.137Z,100948.69
2022-10-22T10:24:58.666Z,101120.63
2022-10-22T10:30:07.033Z,101134.09
2022-10-22T10:35:22.865Z,100911.13
2022-10-22T10:40:32.861Z,100812.09
2022-10-22T10:45:48.862Z,100992.00
2022-10-22T10:51:04.230Z,101157.56
2022-10-22T10:56:20.736Z,100725.19
2022-10-22T11:01:29.692Z,100871.59
2022-10-22T11:06:35.265Z,101114.94
2022-10-22T11:11:45.217Z,101110.53
2022-10-22T11:17:01.729Z,101076.81
2022-10-22T11:22:15.594Z,101030.19
2022-10-22T11:27:26.283Z,101169.47
2022-10-22T11:32:31.905Z,101120.47
2022-10-22T11:37:40.687Z,101170.63
2022-10-22T11:42:48.916Z,101166.09
2022-10-22T11:47:59.388Z,101149.13
2022-10-22T11:53:27.322Z,101160.50
2022-10-22T11:58:42.325Z,101166.44
2022-10-22T12:03:53.282Z,101162.22
2022-10-22T12:09:01.170Z,101156.47
2022-10-22T12:14:18.835Z,101157.38
2022-10-22T12:19:37.374Z,101124.50
2022-10-22T12:24:42.609Z,100813.44
2022-10-22T12:29:45.227Z,100855.47
2022-10-22T12:34:56.274Z,100910.13
2022-10-22T12:40:01.051Z,101051.50
2022-10-22T12:45:04.054Z,101127.25
2022-10-22T12:50:21.864Z,101119.41
2022-10-22T12:55:30.883Z,101152.38
2022-10-22T13:00:45.742Z,100939.47
2022-10-22T13:05:51.903Z,100796.28
2022-10-22T13:11:09.349Z,100895.69
2022-10-22T13:16:27.055Z,101168.47
2022-10-22T13:21:42.909Z,101173.53
2022-10-22T13:26:56.992Z,101082.81
2022-10-22T13:32:53.819Z,100960.97
2022-10-22T13:38:21.750Z,100921.97
2022-10-22T13:43:28.491Z,100924.66
2022-10-22T13:49:04.163Z,100920.81
2022-10-22T13:54:20.103Z,101018.53
2022-10-22T14:05:04.947Z,100975.78
2022-10-22T14:10:35.193Z,101171.38
2022-10-22T14:26:59.156Z,100769.53
2022-10-22T14:32:06.418Z,101043.19
2022-10-22T14:37:19.133Z,101146.00
2022-10-22T14:42:31.769Z,100802.66
2022-10-22T14:53:14.334Z,101037.75
2022-10-22T14:58:50.218Z,100982.84
2022-10-22T15:04:01.982Z,100815.75
2022-10-22T15:09:26.351Z,101191.69
2022-10-22T15:14:41.434Z,101052.94
2022-10-22T15:19:45.161Z,100722.31
2022-10-22T15:24:53.957Z,100962.75
2022-10-22T15:29:59.439Z,101138.41
2022-10-22T15:35:02.874Z,101212.63
2022-10-22T15:40:08.093Z,101199.66
2022-10-22T15:45:12.527Z,100987.41
2022-10-22T15:50:17.771Z,101120.72
2022-10-22T15:55:20.821Z,101192.50
2022-10-22T16:00:25.129Z,101088.78
2022-10-22T16:05:31.135Z,101213.72
2022-10-22T16:10:36.395Z,101154.84
2022-10-22T16:15:40.726Z,101064.44
2022-10-22T16:20:44.099Z,101118.59
2022-10-22T16:25:47.296Z,101204.34
2022-10-22T16:30:51.494Z,101008.03
2022-10-22T16:36:01.037Z,101036.47
2022-10-22T16:41:12.931Z,101143.75
2022-10-22T16:46:19.004Z,101075.75
2022-10-22T16:51:24.264Z,101202.72
2022-10-22T16:56:28.203Z,101225.03
2022-10-22T17:01:35.682Z,101213.19
2022-10-22T17:06:45.322Z,101160.81
2022-10-22T17:11:48.065Z,101174.03
2022-10-22T17:16:53.829Z,101245.06
2022-10-22T17:21:56.483Z,101210.38
2022-10-22T17:26:59.195Z,101198.91
2022-10-22T17:32:04.028Z,101235.38
2022-10-22T17:37:06.639Z,101185.78
2022-10-22T17:42:09.360Z,101252.97
2022-10-22T17:47:14.937Z,101224.91
2022-10-22T17:52:18.037Z,101215.56
2022-10-22T17:57:20.792Z,101243.13
2022-10-22T18:02:24.767Z,101189.09
2022-10-22T18:07:27.454Z,101133.31
2022-10-22T18:12:30.127Z,101251.34
2022-10-22T18:17:37.152Z,101254.53
2022-10-22T18:22:42.300Z,101204.09
2022-10-22T18:27:45.895Z,101261.31
2022-10-22T18:32:51.667Z,101252.59
2022-10-22T18:37:54.410Z,101257.66
2022-10-22T18:42:57.122Z,101225.84
2022-10-22T18:48:01.193Z,101066.94
2022-10-22T18:53:04.935Z,101257.84
2022-10-22T18:58:26.848Z,101256.34
2022-10-22T19:03:38.332Z,101199.13
2022-10-22T19:08:44.834Z,101159.09
2022-10-22T19:13:48.718Z,101264.16
2022-10-22T19:18:54.592Z,101195.28
2022-10-22T19:23:57.722Z,101215.03
2022-10-22T19:29:01.247Z,101065.19
2022-10-22T19:34:05.869Z,101150.06
2022-10-22T19:39:08.894Z,101232.47
2022-10-22T19:44:11.727Z,101231.38
2022-10-22T19:49:19.074Z,101236.72
2022-10-22T19:54:25.018Z,101242.78
2022-10-22T19:59:29.998Z,101230.03
2022-10-22T20:04:38.757Z,101201.13
2022-10-22T20:09:42.315Z,101179.94
2022-10-22T20:14:45.012Z,101243.69
2022-10-22T20:19:51.671Z,101065.66
2022-10-22T20:24:56.601Z,101051.31
2022-10-22T20:30:02.608Z,101234.94
2022-10-22T20:35:10.650Z,101113.09
2022-10-22T20:40:14.019Z,101226.56
2022-10-22T20:45:16.984Z,101174.91
2022-10-22T20:50:24.071Z,101245.88
2022-10-22T20:55:27.252Z,101168.78
2022-10-22T21:00:35.569Z,101232.09
2022-10-22T21:05:39.754Z,101236.84
2022-10-22T21:10:42.553Z,101197.78
2022-10-22T21:15:45.480Z,101252.59
2022-10-22T21:20:49.742Z,101241.72
2022-10-22T21:25:55.980Z,101240.13
2022-10-22T21:30:59.244Z,101248.13
2022-10-22T21:36:03.242Z,101259.00
2022-10-22T21:41:07.095Z,101241.34
2022-10-22T21:46:12.250Z,101166.56
2022-10-22T21:51:22.434Z,101262.91
2022-10-22T21:56:26.993Z,101261.44
2022-10-22T22:01:30.462Z,101193.34
2022-10-22T22:06:35.328Z,101256.97
2022-10-22T22:11:39.284Z,101248.66
2022-10-22T22:16:42.011Z,101239.34
2022-10-22T22:21:45.969Z,101131.53
2022-10-22T22:26:49.132Z,101228.50
2022-10-22T22:31:51.754Z,101237.31
2022-10-22T22:36:55.767Z,101138.69
2022-10-22T22:41:58.485Z,101238.28
2022-10-22T22:47:01.193Z,101244.97
2022-10-22T22:52:05.820Z,101183.09
2022-10-22T22:57:08.412Z,101236.28
2022-10-22T23:02:11.119Z,101102.28
2022-10-22T23:07:15.225Z,101229.97
2022-10-22T23:12:17.814Z,101157.16
2022-10-22T23:17:23.201Z,101178.53
2022-10-22T23:22:27.273Z,101220.50
2022-10-22T23:27:30.317Z,101147.97
2022-10-22T23:32:38.742Z,101068.31
2022-10-22T23:37:43.041Z,101172.53
2022-10-22T23:42:55.709Z,101198.13
2022-10-22T23:47:58.717Z,101202.72
2022-10-22T23:53:10.435Z,101201.84
2022-10-22T23:58:13.517Z,101213.00
